DLH965 EGPH-EDDF
Flight info
| Callsign | DLH965 |
|---|---|
| Flight time | 1h 34m |
| Altitude | 37000 |
| Route | TLA Y96 HAVEN DCT OTBUN DCT AGPED DCT GODOS DCT AMGOD DCT SOGPO DCT DIXAT DIXAT1A |
| Aircraft | A320/M-SDE2E3FGIJ1LORWXYZ/HB1 |
Departure
| Time | 2026-05-04 09:08 |
|---|---|
| Airport | Edinburgh Airport (EGPH) |
Arrival
| Time | 2026-05-04 10:42 |
|---|---|
| Airport | Frankfurt Main Airport (EDDF) |
| Time | Latitude | Longitude | Altitude | Speed | Heading |
|---|---|---|---|---|---|
| 2026-05-04 08:35 | 55.94881 | -3.36548 | 113 ft | 0 kts | 148° |
| 2026-05-04 09:01 | 55.94930 | -3.36646 | 113 ft | 0 kts | 58° |
| 2026-05-04 09:03 | 55.94938 | -3.36620 | 114 ft | 5 kts | 58° |
| 2026-05-04 09:03 | 55.94965 | -3.36542 | 115 ft | 10 kts | 58° |
| 2026-05-04 09:03 | 55.95006 | -3.36423 | 116 ft | 9 kts | 58° |
| 2026-05-04 09:03 | 55.95055 | -3.36393 | 115 ft | 9 kts | 342° |
| 2026-05-04 09:04 | 55.95113 | -3.36345 | 115 ft | 12 kts | 58° |
| 2026-05-04 09:04 | 55.95158 | -3.36209 | 114 ft | 13 kts | 59° |
| 2026-05-04 09:04 | 55.95206 | -3.36067 | 112 ft | 14 kts | 58° |
| 2026-05-04 09:04 | 55.95261 | -3.35906 | 113 ft | 17 kts | 58° |
| 2026-05-04 09:05 | 55.95327 | -3.35712 | 113 ft | 20 kts | 58° |
| 2026-05-04 09:05 | 55.95397 | -3.35506 | 115 ft | 15 kts | 60° |
| 2026-05-04 09:05 | 55.95451 | -3.35403 | 114 ft | 11 kts | 12° |
| 2026-05-04 09:05 | 55.95513 | -3.35454 | 114 ft | 11 kts | 327° |
| 2026-05-04 09:06 | 55.95567 | -3.35565 | 113 ft | 14 kts | 268° |
| 2026-05-04 09:07 | 55.94763 | -3.37946 | 204 ft | 145 kts | 239° |
| 2026-05-04 09:08 | 55.94248 | -3.39463 | 877 ft | 143 kts | 238° |
| 2026-05-04 09:08 | 55.93715 | -3.40992 | 1505 ft | 150 kts | 241° |
| 2026-05-04 09:08 | 55.93125 | -3.42686 | 1876 ft | 171 kts | 239° |
| 2026-05-04 09:08 | 55.92453 | -3.44572 | 2252 ft | 190 kts | 239° |
| 2026-05-04 09:09 | 55.91713 | -3.46708 | 2557 ft | 215 kts | 240° |
| 2026-05-04 09:09 | 55.90881 | -3.49117 | 2956 ft | 240 kts | 241° |
| 2026-05-04 09:09 | 55.89997 | -3.51716 | 3799 ft | 246 kts | 241° |
| 2026-05-04 09:09 | 55.89139 | -3.54342 | 4734 ft | 251 kts | 242° |
| 2026-05-04 09:10 | 55.88190 | -3.56995 | 5581 ft | 258 kts | 230° |
| 2026-05-04 09:10 | 55.86624 | -3.58649 | 6439 ft | 273 kts | 195° |
| 2026-05-04 09:10 | 55.84707 | -3.58450 | 7244 ft | 286 kts | 161° |
| 2026-05-04 09:10 | 55.83084 | -3.56364 | 8098 ft | 295 kts | 129° |
| 2026-05-04 09:11 | 55.81866 | -3.53403 | 8960 ft | 298 kts | 132° |
| 2026-05-04 09:11 | 55.80231 | -3.51149 | 9822 ft | 298 kts | 154° |
| 2026-05-04 09:11 | 55.78289 | -3.49729 | 10394 ft | 311 kts | 164° |
| 2026-05-04 09:11 | 55.76160 | -3.48692 | 10707 ft | 331 kts | 169° |
| 2026-05-04 09:12 | 55.73882 | -3.47757 | 11343 ft | 339 kts | 169° |
| 2026-05-04 09:12 | 55.71559 | -3.46781 | 12082 ft | 343 kts | 168° |
| 2026-05-04 09:14 | 55.54908 | -3.37784 | 16832 ft | 372 kts | 156° |
| 2026-05-04 09:14 | 55.52686 | -3.35368 | 17484 ft | 377 kts | 142° |
| 2026-05-04 09:14 | 55.50826 | -3.32056 | 18128 ft | 382 kts | 128° |
| 2026-05-04 09:14 | 55.49454 | -3.28023 | 18675 ft | 386 kts | 113° |
| 2026-05-04 09:15 | 55.48665 | -3.23549 | 19210 ft | 388 kts | 99° |
| 2026-05-04 09:15 | 55.48181 | -3.18846 | 19768 ft | 391 kts | 99° |
| 2026-05-04 09:15 | 55.47687 | -3.14131 | 20414 ft | 391 kts | 99° |
| 2026-05-04 09:15 | 55.47180 | -3.09405 | 21004 ft | 392 kts | 99° |
| 2026-05-04 09:17 | 55.37808 | -2.73540 | 24867 ft | 417 kts | 117° |
| 2026-05-04 09:18 | 55.36391 | -2.69119 | 25354 ft | 420 kts | 117° |
| 2026-05-04 09:18 | 55.34944 | -2.64626 | 25841 ft | 423 kts | 117° |
| 2026-05-04 09:18 | 55.33503 | -2.60169 | 26326 ft | 427 kts | 117° |
| 2026-05-04 09:18 | 55.32029 | -2.55617 | 26779 ft | 430 kts | 117° |
| 2026-05-04 09:19 | 55.30545 | -2.51033 | 27192 ft | 432 kts | 117° |
| 2026-05-04 09:19 | 55.29053 | -2.46435 | 27563 ft | 434 kts | 117° |
| 2026-05-04 09:19 | 55.27549 | -2.41798 | 27934 ft | 436 kts | 117° |
| 2026-05-04 09:19 | 55.26064 | -2.37221 | 28279 ft | 439 kts | 117° |
| 2026-05-04 09:20 | 55.24547 | -2.32550 | 28641 ft | 441 kts | 117° |
| 2026-05-04 09:20 | 55.23027 | -2.27877 | 29078 ft | 441 kts | 116° |
| 2026-05-04 09:20 | 55.21501 | -2.23204 | 29515 ft | 442 kts | 116° |
| 2026-05-04 09:20 | 55.20484 | -2.20101 | 29774 ft | 443 kts | 116° |
| 2026-05-04 09:21 | 55.18943 | -2.15409 | 30136 ft | 445 kts | 116° |
| 2026-05-04 09:21 | 55.17395 | -2.10690 | 30416 ft | 447 kts | 116° |
| 2026-05-04 09:21 | 55.15335 | -2.04419 | 30790 ft | 450 kts | 116° |
| 2026-05-04 09:21 | 55.14278 | -2.01212 | 30979 ft | 451 kts | 116° |
| 2026-05-04 09:22 | 55.12722 | -1.96507 | 31258 ft | 452 kts | 116° |
| 2026-05-04 09:22 | 55.11155 | -1.91726 | 31543 ft | 453 kts | 116° |
| 2026-05-04 09:22 | 55.09624 | -1.86905 | 31953 ft | 452 kts | 115° |
| 2026-05-04 09:22 | 55.08127 | -1.82089 | 32347 ft | 450 kts | 115° |
| 2026-05-04 09:23 | 55.06646 | -1.77279 | 32736 ft | 449 kts | 115° |
| 2026-05-04 09:23 | 55.05167 | -1.72483 | 33112 ft | 448 kts | 115° |
| 2026-05-04 09:23 | 55.03699 | -1.67759 | 33488 ft | 447 kts | 115° |
| 2026-05-04 09:23 | 55.02218 | -1.63032 | 33877 ft | 446 kts | 115° |
| 2026-05-04 09:25 | 54.91781 | -1.30187 | 35926 ft | 442 kts | 117° |
| 2026-05-04 09:25 | 54.90281 | -1.25489 | 36147 ft | 443 kts | 117° |
| 2026-05-04 09:26 | 54.88802 | -1.20870 | 36365 ft | 443 kts | 117° |
| 2026-05-04 09:26 | 54.87295 | -1.16182 | 36579 ft | 444 kts | 117° |
| 2026-05-04 09:26 | 54.85785 | -1.11495 | 36780 ft | 444 kts | 118° |
| 2026-05-04 09:26 | 54.84271 | -1.06806 | 37007 ft | 445 kts | 118° |
| 2026-05-04 09:27 | 54.81236 | -0.97443 | 37077 ft | 443 kts | 118° |
| 2026-05-04 09:27 | 54.78236 | -0.88210 | 37079 ft | 442 kts | 118° |
| 2026-05-04 09:28 | 54.75225 | -0.78961 | 37086 ft | 442 kts | 118° |
| 2026-05-04 09:28 | 54.72207 | -0.69738 | 37077 ft | 439 kts | 118° |
| 2026-05-04 09:29 | 54.69188 | -0.60540 | 37080 ft | 439 kts | 118° |
| 2026-05-04 09:29 | 54.66184 | -0.51427 | 37088 ft | 439 kts | 118° |
| 2026-05-04 09:30 | 54.63146 | -0.42256 | 37077 ft | 439 kts | 119° |
| 2026-05-04 09:30 | 54.60100 | -0.33093 | 37094 ft | 439 kts | 119° |
| 2026-05-04 09:31 | 54.57075 | -0.24010 | 37085 ft | 439 kts | 119° |
| 2026-05-04 09:31 | 54.54025 | -0.14892 | 37090 ft | 439 kts | 119° |
| 2026-05-04 09:32 | 54.50958 | -0.05766 | 37090 ft | 439 kts | 119° |
| 2026-05-04 09:34 | 54.38666 | 0.30482 | 37079 ft | 440 kts | 119° |
| 2026-05-04 09:34 | 54.35583 | 0.39505 | 37078 ft | 440 kts | 120° |
| 2026-05-04 09:35 | 54.32469 | 0.48575 | 37076 ft | 440 kts | 120° |
| 2026-05-04 09:35 | 54.29351 | 0.57623 | 37078 ft | 440 kts | 120° |
| 2026-05-04 09:37 | 54.16808 | 0.93683 | 37065 ft | 443 kts | 121° |
| 2026-05-04 09:38 | 54.13644 | 1.02709 | 37068 ft | 442 kts | 121° |
| 2026-05-04 09:38 | 54.10464 | 1.11706 | 37068 ft | 443 kts | 122° |
| 2026-05-04 09:39 | 54.07277 | 1.20713 | 37064 ft | 443 kts | 122° |
| 2026-05-04 09:39 | 54.04104 | 1.29665 | 37064 ft | 444 kts | 122° |
| 2026-05-04 09:40 | 54.00902 | 1.38658 | 37065 ft | 444 kts | 122° |
| 2026-05-04 09:40 | 53.97685 | 1.47663 | 37067 ft | 444 kts | 123° |
| 2026-05-04 09:42 | 53.84810 | 1.83334 | 37068 ft | 444 kts | 123° |
| 2026-05-04 09:43 | 53.81563 | 1.92254 | 37068 ft | 444 kts | 123° |
| 2026-05-04 09:43 | 53.78333 | 2.01102 | 37067 ft | 444 kts | 123° |
| 2026-05-04 09:44 | 53.75066 | 2.09995 | 37055 ft | 444 kts | 123° |
| 2026-05-04 09:46 | 53.61998 | 2.45328 | 37049 ft | 444 kts | 124° |
| 2026-05-04 09:46 | 53.58708 | 2.54135 | 37046 ft | 444 kts | 124° |
| 2026-05-04 09:47 | 53.55410 | 2.62931 | 37037 ft | 444 kts | 124° |
| 2026-05-04 09:49 | 53.42202 | 2.97907 | 37038 ft | 444 kts | 124° |
| 2026-05-04 09:51 | 53.30522 | 3.28405 | 37041 ft | 445 kts | 125° |
| 2026-05-04 09:51 | 53.27144 | 3.37122 | 37044 ft | 445 kts | 128° |
| 2026-05-04 09:52 | 53.22919 | 3.44507 | 37039 ft | 438 kts | 146° |
| 2026-05-04 09:52 | 53.17761 | 3.49667 | 37029 ft | 434 kts | 154° |
| 2026-05-04 09:53 | 53.12484 | 3.54587 | 37031 ft | 435 kts | 153° |
| 2026-05-04 09:53 | 53.07199 | 3.59526 | 37030 ft | 435 kts | 154° |
| 2026-05-04 09:54 | 53.01929 | 3.64433 | 37037 ft | 434 kts | 154° |
| 2026-05-04 09:54 | 52.97126 | 3.70573 | 37036 ft | 441 kts | 135° |
| 2026-05-04 09:55 | 52.93605 | 3.78982 | 37016 ft | 445 kts | 124° |
| 2026-05-04 09:55 | 52.90355 | 3.87667 | 37019 ft | 445 kts | 125° |
| 2026-05-04 09:56 | 52.87070 | 3.96379 | 37019 ft | 446 kts | 125° |
| 2026-05-04 09:56 | 52.83764 | 4.05093 | 37010 ft | 446 kts | 126° |
| 2026-05-04 09:57 | 52.80485 | 4.13719 | 37004 ft | 447 kts | 125° |
| 2026-05-04 09:57 | 52.77166 | 4.22438 | 37003 ft | 447 kts | 126° |
| 2026-05-04 09:58 | 52.73863 | 4.31088 | 36998 ft | 448 kts | 126° |
| 2026-05-04 09:58 | 52.70523 | 4.39794 | 37002 ft | 448 kts | 126° |
| 2026-05-04 10:00 | 52.57118 | 4.74424 | 36995 ft | 449 kts | 126° |
| 2026-05-04 10:04 | 52.33324 | 5.34752 | 37008 ft | 449 kts | 128° |
| 2026-05-04 10:04 | 52.29931 | 5.43243 | 37007 ft | 448 kts | 128° |
| 2026-05-04 10:05 | 52.26518 | 5.51771 | 37002 ft | 447 kts | 128° |
| 2026-05-04 10:05 | 52.23674 | 5.58842 | 37006 ft | 447 kts | 128° |
| 2026-05-04 10:06 | 52.20255 | 5.67314 | 37008 ft | 447 kts | 129° |
| 2026-05-04 10:06 | 52.16825 | 5.75794 | 37010 ft | 447 kts | 129° |
| 2026-05-04 10:08 | 52.04847 | 6.05126 | 37009 ft | 444 kts | 129° |
| 2026-05-04 10:08 | 52.01415 | 6.13480 | 37013 ft | 443 kts | 129° |
| 2026-05-04 10:09 | 51.97989 | 6.21771 | 37012 ft | 442 kts | 131° |
| 2026-05-04 10:09 | 51.93843 | 6.28874 | 37015 ft | 429 kts | 147° |
| 2026-05-04 10:10 | 51.89197 | 6.34935 | 37000 ft | 429 kts | 147° |
| 2026-05-04 10:10 | 51.84540 | 6.41000 | 36986 ft | 430 kts | 147° |
| 2026-05-04 10:11 | 51.79877 | 6.47063 | 36991 ft | 430 kts | 147° |
| 2026-05-04 10:11 | 51.75243 | 6.53069 | 36995 ft | 430 kts | 147° |
| 2026-05-04 10:12 | 51.70569 | 6.59120 | 36998 ft | 430 kts | 147° |
| 2026-05-04 10:12 | 51.68244 | 6.62129 | 36893 ft | 431 kts | 147° |
| 2026-05-04 10:12 | 51.65902 | 6.65155 | 36632 ft | 430 kts | 147° |
| 2026-05-04 10:13 | 51.63569 | 6.68173 | 36368 ft | 430 kts | 147° |
| 2026-05-04 10:13 | 51.61230 | 6.71192 | 36082 ft | 431 kts | 147° |
| 2026-05-04 10:13 | 51.58889 | 6.74204 | 35838 ft | 430 kts | 147° |
| 2026-05-04 10:13 | 51.56555 | 6.77193 | 35575 ft | 428 kts | 147° |
| 2026-05-04 10:14 | 51.54250 | 6.80142 | 35319 ft | 426 kts | 147° |
| 2026-05-04 10:14 | 51.51928 | 6.83110 | 35025 ft | 423 kts | 147° |
| 2026-05-04 10:16 | 51.36167 | 7.03189 | 31490 ft | 403 kts | 148° |
| 2026-05-04 10:16 | 51.33984 | 7.05967 | 31019 ft | 399 kts | 148° |
| 2026-05-04 10:16 | 51.31817 | 7.08717 | 30569 ft | 396 kts | 149° |
| 2026-05-04 10:16 | 51.29664 | 7.11437 | 30112 ft | 393 kts | 149° |
| 2026-05-04 10:17 | 51.27510 | 7.14120 | 29618 ft | 388 kts | 152° |
| 2026-05-04 10:17 | 51.25238 | 7.16300 | 29165 ft | 374 kts | 161° |
| 2026-05-04 10:19 | 51.09658 | 7.28656 | 26344 ft | 346 kts | 159° |
| 2026-05-04 10:19 | 51.07521 | 7.30407 | 25933 ft | 344 kts | 158° |
| 2026-05-04 10:19 | 51.05398 | 7.32165 | 25491 ft | 342 kts | 158° |
| 2026-05-04 10:19 | 51.03289 | 7.33920 | 25065 ft | 340 kts | 158° |
| 2026-05-04 10:20 | 51.01201 | 7.35653 | 24625 ft | 339 kts | 158° |
| 2026-05-04 10:20 | 50.99100 | 7.37389 | 24173 ft | 338 kts | 158° |
| 2026-05-04 10:20 | 50.97042 | 7.39086 | 23732 ft | 338 kts | 158° |
| 2026-05-04 10:20 | 50.94952 | 7.40804 | 23247 ft | 337 kts | 158° |
| 2026-05-04 10:21 | 50.92869 | 7.42515 | 22783 ft | 335 kts | 158° |
| 2026-05-04 10:21 | 50.90804 | 7.44208 | 22344 ft | 332 kts | 158° |
| 2026-05-04 10:21 | 50.88755 | 7.45903 | 21919 ft | 332 kts | 154° |
| 2026-05-04 10:21 | 50.86956 | 7.48231 | 21587 ft | 342 kts | 135° |
| 2026-05-04 10:22 | 50.84107 | 7.54326 | 21059 ft | 345 kts | 130° |
| 2026-05-04 10:22 | 50.82703 | 7.57401 | 20807 ft | 344 kts | 130° |
| 2026-05-04 10:22 | 50.81304 | 7.60467 | 20558 ft | 343 kts | 130° |
| 2026-05-04 10:23 | 50.79910 | 7.63519 | 20309 ft | 342 kts | 130° |
| 2026-05-04 10:23 | 50.78539 | 7.66514 | 20070 ft | 340 kts | 130° |
| 2026-05-04 10:25 | 50.68962 | 7.87249 | 18408 ft | 328 kts | 130° |
| 2026-05-04 10:25 | 50.67614 | 7.90154 | 18150 ft | 327 kts | 130° |
| 2026-05-04 10:25 | 50.66283 | 7.93017 | 17892 ft | 326 kts | 130° |
| 2026-05-04 10:25 | 50.64944 | 7.95896 | 17606 ft | 324 kts | 130° |
| 2026-05-04 10:26 | 50.63614 | 7.98750 | 17342 ft | 323 kts | 130° |
| 2026-05-04 10:26 | 50.62285 | 8.01595 | 17052 ft | 321 kts | 130° |
| 2026-05-04 10:26 | 50.60962 | 8.04427 | 16807 ft | 320 kts | 130° |
| 2026-05-04 10:26 | 50.59642 | 8.07255 | 16528 ft | 319 kts | 130° |
| 2026-05-04 10:27 | 50.58324 | 8.10078 | 16267 ft | 319 kts | 130° |
| 2026-05-04 10:27 | 50.57010 | 8.12884 | 16019 ft | 318 kts | 130° |
| 2026-05-04 10:27 | 50.55716 | 8.15643 | 15766 ft | 317 kts | 130° |
| 2026-05-04 10:27 | 50.54425 | 8.18404 | 15531 ft | 312 kts | 130° |
| 2026-05-04 10:28 | 50.53141 | 8.21150 | 15180 ft | 311 kts | 130° |
| 2026-05-04 10:28 | 50.51855 | 8.23898 | 14821 ft | 313 kts | 130° |
| 2026-05-04 10:28 | 50.50555 | 8.26659 | 14453 ft | 313 kts | 130° |
| 2026-05-04 10:28 | 50.49252 | 8.29418 | 14089 ft | 313 kts | 129° |
| 2026-05-04 10:29 | 50.47965 | 8.32146 | 13700 ft | 314 kts | 129° |
| 2026-05-04 10:29 | 50.46661 | 8.34911 | 13305 ft | 313 kts | 129° |
| 2026-05-04 10:29 | 50.45363 | 8.37666 | 12916 ft | 312 kts | 129° |
| 2026-05-04 10:29 | 50.44072 | 8.40400 | 12536 ft | 311 kts | 129° |
| 2026-05-04 10:30 | 50.42784 | 8.43116 | 12159 ft | 310 kts | 129° |
| 2026-05-04 10:30 | 50.41501 | 8.45823 | 11772 ft | 309 kts | 129° |
| 2026-05-04 10:30 | 50.40219 | 8.48525 | 11369 ft | 308 kts | 129° |
| 2026-05-04 10:30 | 50.38930 | 8.51236 | 10730 ft | 316 kts | 129° |
| 2026-05-04 10:31 | 50.37606 | 8.54015 | 10049 ft | 325 kts | 129° |
| 2026-05-04 10:31 | 50.36233 | 8.56895 | 9526 ft | 325 kts | 129° |
| 2026-05-04 10:32 | 50.28647 | 8.72794 | 7586 ft | 305 kts | 129° |
| 2026-05-04 10:33 | 50.27369 | 8.75455 | 7201 ft | 304 kts | 129° |
| 2026-05-04 10:33 | 50.26115 | 8.78069 | 6997 ft | 296 kts | 129° |
| 2026-05-04 10:33 | 50.24908 | 8.80592 | 6754 ft | 290 kts | 129° |
| 2026-05-04 10:33 | 50.23704 | 8.83124 | 6493 ft | 283 kts | 128° |
| 2026-05-04 10:34 | 50.22563 | 8.85513 | 6220 ft | 274 kts | 129° |
| 2026-05-04 10:34 | 50.21430 | 8.87834 | 5914 ft | 264 kts | 134° |
| 2026-05-04 10:34 | 50.20111 | 8.89725 | 5608 ft | 253 kts | 143° |
| 2026-05-04 10:34 | 50.18761 | 8.91419 | 5378 ft | 245 kts | 143° |
| 2026-05-04 10:35 | 50.17330 | 8.92712 | 5206 ft | 232 kts | 168° |
| 2026-05-04 10:35 | 50.15779 | 8.92798 | 5075 ft | 218 kts | 194° |
| 2026-05-04 10:35 | 50.14398 | 8.91893 | 5030 ft | 215 kts | 217° |
| 2026-05-04 10:35 | 50.13382 | 8.90221 | 5030 ft | 215 kts | 239° |
| 2026-05-04 10:36 | 50.12797 | 8.88083 | 5035 ft | 213 kts | 250° |
| 2026-05-04 10:36 | 50.12298 | 8.85939 | 4924 ft | 209 kts | 250° |
| 2026-05-04 10:36 | 50.11795 | 8.83791 | 4658 ft | 212 kts | 250° |
| 2026-05-04 10:36 | 50.11291 | 8.81653 | 4374 ft | 213 kts | 250° |
| 2026-05-04 10:37 | 50.10776 | 8.79468 | 4067 ft | 214 kts | 249° |
| 2026-05-04 10:37 | 50.10267 | 8.77309 | 3766 ft | 209 kts | 249° |
| 2026-05-04 10:37 | 50.09772 | 8.75215 | 3473 ft | 204 kts | 249° |
| 2026-05-04 10:37 | 50.09294 | 8.73200 | 3207 ft | 192 kts | 249° |
| 2026-05-04 10:39 | 50.07029 | 8.63649 | 1847 ft | 137 kts | 248° |
| 2026-05-04 10:39 | 50.06695 | 8.62245 | 1655 ft | 135 kts | 248° |
| 2026-05-04 10:39 | 50.06367 | 8.60866 | 1466 ft | 136 kts | 248° |
| 2026-05-04 10:40 | 50.06036 | 8.59491 | 1240 ft | 135 kts | 248° |
| 2026-05-04 10:40 | 50.05713 | 8.58126 | 1062 ft | 136 kts | 249° |
| 2026-05-04 10:40 | 50.05384 | 8.56736 | 852 ft | 137 kts | 250° |
| 2026-05-04 10:40 | 50.05054 | 8.55334 | 672 ft | 138 kts | 250° |
| 2026-05-04 10:41 | 50.04721 | 8.53932 | 473 ft | 137 kts | 250° |
| 2026-05-04 10:41 | 50.04389 | 8.52559 | 350 ft | 128 kts | 249° |
| 2026-05-04 10:41 | 50.04132 | 8.51484 | 331 ft | 82 kts | 249° |
| 2026-05-04 10:41 | 50.03976 | 8.50843 | 325 ft | 53 kts | 249° |
| 2026-05-04 10:42 | 50.03856 | 8.50426 | 321 ft | 30 kts | 228° |
| 2026-05-04 10:42 | 50.03720 | 8.50216 | 318 ft | 24 kts | 217° |
| 2026-05-04 10:42 | 50.03623 | 8.50232 | 324 ft | 14 kts | 107° |
| 2026-05-04 10:42 | 50.03645 | 8.50365 | 325 ft | 11 kts | 68° |
| 2026-05-04 10:43 | 50.03679 | 8.50498 | 327 ft | 20 kts | 70° |
| 2026-05-04 10:44 | 50.04161 | 8.52510 | 356 ft | 29 kts | 69° |
| 2026-05-04 10:45 | 50.04232 | 8.52807 | 353 ft | 29 kts | 70° |
| 2026-05-04 10:45 | 50.04301 | 8.53100 | 363 ft | 29 kts | 70° |
| 2026-05-04 10:45 | 50.04368 | 8.53374 | 369 ft | 25 kts | 70° |
| 2026-05-04 10:45 | 50.04402 | 8.53626 | 375 ft | 24 kts | 85° |
| 2026-05-04 10:46 | 50.04421 | 8.53896 | 375 ft | 26 kts | 85° |
| 2026-05-04 10:46 | 50.04440 | 8.54185 | 375 ft | 28 kts | 84° |
| 2026-05-04 10:46 | 50.04453 | 8.54393 | 372 ft | 30 kts | 86° |
| 2026-05-04 10:46 | 50.04379 | 8.54698 | 361 ft | 31 kts | 137° |
| 2026-05-04 10:47 | 50.04201 | 8.54835 | 356 ft | 28 kts | 160° |
| 2026-05-04 10:47 | 50.04035 | 8.54928 | 358 ft | 17 kts | 155° |
| 2026-05-04 10:47 | 50.03922 | 8.54997 | 358 ft | 19 kts | 161° |
| 2026-05-04 10:47 | 50.03854 | 8.55141 | 358 ft | 18 kts | 72° |
| 2026-05-04 10:49 | 50.04289 | 8.56163 | 359 ft | 16 kts | 277° |
| 2026-05-04 10:49 | 50.04355 | 8.56045 | 358 ft | 17 kts | 342° |
| 2026-05-04 10:50 | 50.04450 | 8.56103 | 358 ft | 18 kts | 66° |
| 2026-05-04 10:51 | 50.04687 | 8.56701 | 356 ft | 0 kts | 115° |